createdAt,value
2018-04-27T00:02:08.219Z,16.13
2018-04-27T00:04:35.673Z,11.00
2018-04-27T00:07:03.119Z,13.27
2018-04-27T00:09:31.327Z,13.80
2018-04-27T00:11:58.815Z,13.70
2018-04-27T00:14:26.250Z,16.33
2018-04-27T00:16:53.685Z,19.37
2018-04-27T00:19:21.906Z,17.03
2018-04-27T00:21:49.346Z,18.70
2018-04-27T00:24:16.834Z,13.20
2018-04-27T00:26:44.289Z,12.93
2018-04-27T00:29:11.783Z,10.80
2018-04-27T00:31:39.322Z,15.30
2018-04-27T00:34:06.754Z,13.53
2018-04-27T00:36:34.257Z,13.00
2018-04-27T00:39:01.707Z,13.40
2018-04-27T00:41:29.138Z,12.87
2018-04-27T00:43:56.630Z,14.00
2018-04-27T00:46:24.091Z,18.63
2018-04-27T00:48:51.539Z,14.83
2018-04-27T00:51:20.224Z,14.17
2018-04-27T00:53:47.662Z,13.47
2018-04-27T00:56:15.175Z,14.20
2018-04-27T00:58:42.700Z,15.30
2018-04-27T01:01:10.191Z,15.63
2018-04-27T01:03:37.642Z,13.10
2018-04-27T01:06:05.083Z,13.90
2018-04-27T01:08:32.577Z,15.63
2018-04-27T01:11:00.006Z,13.77
2018-04-27T01:13:27.490Z,13.10
2018-04-27T01:15:54.962Z,13.70
2018-04-27T01:18:22.418Z,14.10
2018-04-27T01:20:49.847Z,14.93
2018-04-27T01:23:17.296Z,11.40
2018-04-27T01:25:45.492Z,10.90
2018-04-27T01:28:12.985Z,11.83
2018-04-27T01:30:40.598Z,12.50
2018-04-27T01:33:08.811Z,12.50
2018-04-27T01:35:36.257Z,13.60
2018-04-27T01:38:03.744Z,15.07
2018-04-27T01:40:31.174Z,14.33
2018-04-27T01:42:58.671Z,12.57
2018-04-27T01:45:26.101Z,16.63
2018-04-27T01:47:53.567Z,15.17
2018-04-27T01:50:21.023Z,11.93
2018-04-27T01:52:48.623Z,16.60
2018-04-27T01:55:16.079Z,17.53
2018-04-27T01:57:43.543Z,13.80
2018-04-27T02:00:10.971Z,12.10
2018-04-27T02:02:38.446Z,13.70
2018-04-27T02:05:05.922Z,12.33
2018-04-27T02:07:33.367Z,11.90
2018-04-27T02:10:00.819Z,12.00
2018-04-27T02:12:28.258Z,12.20
2018-04-27T02:14:56.458Z,13.93
2018-04-27T02:17:23.895Z,11.80
2018-04-27T02:19:52.107Z,12.63
2018-04-27T02:22:20.252Z,13.63
2018-04-27T02:24:48.556Z,14.47
2018-04-27T02:27:15.985Z,17.93
2018-04-27T02:29:44.199Z,15.03
2018-04-27T02:32:11.654Z,13.87
2018-04-27T02:34:39.127Z,10.47
2018-04-27T02:37:06.565Z,11.07
2018-04-27T02:39:34.021Z,14.53
2018-04-27T02:42:02.219Z,11.50
2018-04-27T02:44:29.672Z,12.77
2018-04-27T02:46:57.162Z,15.23
2018-04-27T02:49:24.615Z,13.93
2018-04-27T02:51:52.086Z,14.10
2018-04-27T02:54:19.559Z,16.40
2018-04-27T02:56:47.016Z,14.20
2018-04-27T02:59:14.458Z,13.10
2018-04-27T03:01:41.900Z,13.13
2018-04-27T03:04:09.338Z,11.87
2018-04-27T03:06:37.545Z,14.40
2018-04-27T03:09:05.863Z,12.33
2018-04-27T03:11:33.323Z,16.03
2018-04-27T03:14:00.880Z,14.03
2018-04-27T03:16:28.310Z,16.63
2018-04-27T03:18:55.903Z,15.50
2018-04-27T03:21:23.351Z,14.23
2018-04-27T03:23:50.918Z,17.73
2018-04-27T03:26:18.290Z,13.50
2018-04-27T03:28:45.746Z,15.53
2018-04-27T03:31:13.215Z,14.57
2018-04-27T03:33:40.661Z,13.40
2018-04-27T03:36:08.094Z,12.20
2018-04-27T03:38:35.594Z,12.30
2018-04-27T03:41:03.059Z,14.93
2018-04-27T03:43:30.491Z,13.70
2018-04-27T03:45:58.039Z,13.73
2018-04-27T03:48:26.244Z,13.17
2018-04-27T03:50:53.720Z,13.90
2018-04-27T03:53:21.208Z,13.80
2018-04-27T03:55:48.746Z,14.73
2018-04-27T03:58:16.183Z,16.53
2018-04-27T04:00:55.466Z,14.00
2018-04-27T04:03:34.834Z,14.90
2018-04-27T04:06:03.026Z,11.50
2018-04-27T04:08:30.479Z,16.00
2018-04-27T04:10:57.919Z,15.80
2018-04-27T04:13:26.151Z,11.87
2018-04-27T04:15:53.598Z,15.70
2018-04-27T04:18:21.044Z,15.67
2018-04-27T04:20:48.492Z,13.30
2018-04-27T04:23:15.922Z,13.97
2018-04-27T04:25:43.362Z,17.20
2018-04-27T04:28:10.795Z,18.97
2018-04-27T04:30:38.234Z,18.43
2018-04-27T04:33:05.671Z,13.53
2018-04-27T04:35:33.204Z,11.73
2018-04-27T04:38:00.641Z,15.03
2018-04-27T04:40:28.086Z,12.80
2018-04-27T04:42:55.582Z,12.93
2018-04-27T04:45:23.045Z,16.70
2018-04-27T04:47:50.496Z,13.87
2018-04-27T04:50:17.942Z,12.87
2018-04-27T04:52:45.429Z,12.73
2018-04-27T04:55:13.585Z,12.17
2018-04-27T04:57:41.020Z,11.90
2018-04-27T05:00:09.242Z,17.37
2018-04-27T05:02:36.678Z,15.70
2018-04-27T05:05:04.130Z,13.30
2018-04-27T05:07:31.627Z,13.77
2018-04-27T05:09:59.089Z,14.67
2018-04-27T05:12:26.519Z,19.23
2018-04-27T05:14:53.958Z,15.07
2018-04-27T05:17:22.194Z,18.23
2018-04-27T05:19:54.999Z,12.63
2018-04-27T05:22:22.422Z,19.53
2018-04-27T05:24:49.876Z,16.00
2018-04-27T05:27:17.311Z,16.10
2018-04-27T05:29:45.543Z,11.43
2018-04-27T05:32:12.999Z,11.80
2018-04-27T05:34:40.447Z,14.77
2018-04-27T05:37:07.877Z,15.97
2018-04-27T05:39:35.386Z,12.90
2018-04-27T05:42:02.815Z,14.90
2018-04-27T05:44:30.266Z,14.50
2018-04-27T05:46:57.703Z,14.80
2018-04-27T05:49:25.916Z,15.83
2018-04-27T05:51:53.409Z,12.90
2018-04-27T05:54:20.871Z,12.13
2018-04-27T05:56:48.322Z,14.60
2018-04-27T05:59:15.758Z,15.60
2018-04-27T06:01:43.342Z,13.40
2018-04-27T06:04:12.479Z,10.53
2018-04-27T06:06:40.030Z,15.27
2018-04-27T06:09:07.465Z,11.47
2018-04-27T06:11:34.903Z,16.47
2018-04-27T06:14:02.338Z,13.73
2018-04-27T06:16:30.591Z,13.83
2018-04-27T06:18:58.019Z,9.27
2018-04-27T06:21:25.498Z,13.27
2018-04-27T06:23:52.908Z,12.50
2018-04-27T06:26:21.114Z,8.20
2018-04-27T06:28:49.292Z,10.60
2018-04-27T06:31:16.734Z,14.60
2018-04-27T06:33:44.180Z,7.60
2018-04-27T06:36:12.427Z,10.60
2018-04-27T06:38:39.918Z,11.80
2018-04-27T06:41:08.167Z,10.00
2018-04-27T06:43:35.608Z,11.87
2018-04-27T06:46:03.054Z,8.23
2018-04-27T06:48:30.527Z,5.60
2018-04-27T06:50:58.722Z,12.27
2018-04-27T06:53:26.168Z,15.90
2018-04-27T06:55:53.629Z,8.93
2018-04-27T06:58:21.218Z,10.60
2018-04-27T07:00:48.658Z,9.77
2018-04-27T07:03:16.142Z,7.90
2018-04-27T07:05:43.699Z,7.67
2018-04-27T07:08:11.139Z,6.43
2018-04-27T07:10:38.587Z,5.83
2018-04-27T07:13:06.019Z,9.90
2018-04-27T07:15:34.250Z,8.90
2018-04-27T07:18:01.696Z,8.27
2018-04-27T07:20:29.183Z,7.90
2018-04-27T07:22:56.622Z,6.90
2018-04-27T07:25:24.133Z,7.87
2018-04-27T07:27:52.448Z,11.03
2018-04-27T07:30:20.658Z,8.43
2018-04-27T07:32:48.105Z,9.80
2018-04-27T07:35:15.595Z,9.40
2018-04-27T07:37:43.039Z,7.90
2018-04-27T07:40:10.524Z,12.27
2018-04-27T07:42:38.084Z,9.73
2018-04-27T07:45:05.523Z,7.30
2018-04-27T07:47:33.007Z,8.30
2018-04-27T07:50:00.439Z,8.23
2018-04-27T07:52:27.926Z,7.20
2018-04-27T07:54:55.363Z,6.13
2018-04-27T07:57:22.810Z,5.80
2018-04-27T07:59:50.298Z,7.33
2018-04-27T08:02:17.862Z,4.33
2018-04-27T08:04:45.266Z,3.63
2018-04-27T08:07:13.484Z,5.87
2018-04-27T08:09:40.931Z,6.03
2018-04-27T08:12:08.453Z,6.57
2018-04-27T08:14:35.891Z,8.73
2018-04-27T08:17:03.347Z,6.40
2018-04-27T08:19:30.815Z,8.37
2018-04-27T08:21:58.333Z,7.73
2018-04-27T08:24:25.706Z,9.43
2018-04-27T08:26:53.203Z,7.07
2018-04-27T08:29:20.652Z,7.27
2018-04-27T08:31:48.090Z,4.70
2018-04-27T08:34:15.588Z,8.03
2018-04-27T08:36:43.035Z,7.80
2018-04-27T08:39:10.507Z,6.60
2018-04-27T08:41:37.962Z,4.57
2018-04-27T08:44:05.435Z,8.33
2018-04-27T08:46:32.961Z,10.20
2018-04-27T08:49:00.442Z,8.67
2018-04-27T08:51:27.911Z,9.43
2018-04-27T08:53:55.354Z,8.10
2018-04-27T08:56:22.789Z,4.80
2018-04-27T08:58:50.991Z,4.63
2018-04-27T09:01:18.470Z,5.37
2018-04-27T09:03:45.925Z,5.03
2018-04-27T09:06:13.449Z,4.80
2018-04-27T09:08:40.838Z,7.10
2018-04-27T09:11:08.279Z,9.07
2018-04-27T09:13:35.737Z,2.97
2018-04-27T09:16:03.181Z,4.23
2018-04-27T09:18:31.386Z,5.37
2018-04-27T09:20:58.822Z,3.80
2018-04-27T09:23:27.063Z,7.63
2018-04-27T09:25:54.495Z,4.13
2018-04-27T09:28:22.021Z,3.40
2018-04-27T09:30:49.446Z,4.87
2018-04-27T09:33:16.902Z,6.80
2018-04-27T09:35:44.343Z,6.83
2018-04-27T09:38:11.795Z,6.80
2018-04-27T09:40:39.294Z,7.10
2018-04-27T09:43:06.755Z,4.40
2018-04-27T09:45:34.206Z,9.30
2018-04-27T09:48:01.663Z,4.57
2018-04-27T09:50:29.130Z,5.50
2018-04-27T09:52:56.582Z,5.00
2018-04-27T09:55:24.063Z,9.27
2018-04-27T09:57:51.513Z,3.90
2018-04-27T10:00:18.983Z,5.17
2018-04-27T10:02:46.436Z,3.97
2018-04-27T10:05:13.874Z,6.07
2018-04-27T10:07:41.383Z,4.87
2018-04-27T10:10:08.828Z,6.80
2018-04-27T10:12:36.277Z,7.10
2018-04-27T10:15:03.774Z,3.30
2018-04-27T10:17:31.217Z,3.20
2018-04-27T10:19:58.690Z,4.97
2018-04-27T10:22:26.131Z,3.33
2018-04-27T10:24:53.593Z,7.73
2018-04-27T10:27:21.036Z,8.30
2018-04-27T10:29:48.470Z,3.40
2018-04-27T10:32:16.690Z,4.10
2018-04-27T10:34:44.134Z,3.97
2018-04-27T10:37:11.581Z,5.30
2018-04-27T10:39:39.048Z,4.73
2018-04-27T10:42:06.543Z,8.00
2018-04-27T10:44:33.992Z,6.10
2018-04-27T10:47:01.535Z,3.50
2018-04-27T10:49:29.023Z,6.97
2018-04-27T10:51:56.471Z,7.53
2018-04-27T10:54:23.947Z,7.87
2018-04-27T10:56:51.379Z,2.97
2018-04-27T10:59:18.827Z,2.57
2018-04-27T11:01:46.271Z,8.67
2018-04-27T11:04:14.558Z,3.60
2018-04-27T11:06:42.760Z,8.27
2018-04-27T11:09:10.252Z,3.20
2018-04-27T11:11:37.717Z,5.67
2018-04-27T11:14:05.162Z,6.40
2018-04-27T11:16:32.603Z,11.03
2018-04-27T11:19:00.042Z,6.60
2018-04-27T11:21:28.265Z,3.90
2018-04-27T11:23:55.845Z,4.67
2018-04-27T11:26:23.307Z,12.70
2018-04-27T11:28:50.762Z,5.17
2018-04-27T11:31:18.211Z,5.43
2018-04-27T11:33:45.678Z,8.40
2018-04-27T11:36:13.131Z,5.03
2018-04-27T11:38:40.590Z,4.97
2018-04-27T11:41:08.030Z,6.00
2018-04-27T11:43:35.531Z,6.47
2018-04-27T11:46:02.986Z,13.57
2018-04-27T11:48:30.475Z,4.40
2018-04-27T11:50:58.014Z,4.97
2018-04-27T11:53:25.495Z,6.47
2018-04-27T11:55:52.950Z,8.00
2018-04-27T11:58:20.510Z,3.73
2018-04-27T12:00:47.990Z,3.57
2018-04-27T12:03:15.430Z,6.10
2018-04-27T12:05:42.863Z,10.40
2018-04-27T12:08:10.346Z,6.23
2018-04-27T12:10:37.878Z,3.90
2018-04-27T12:13:05.379Z,6.63
2018-04-27T12:15:32.827Z,4.23
2018-04-27T12:18:00.264Z,4.90
2018-04-27T12:20:27.719Z,2.90
2018-04-27T12:22:55.154Z,2.90
2018-04-27T12:25:23.399Z,7.60
2018-04-27T12:27:50.880Z,4.40
2018-04-27T12:30:18.418Z,6.47
2018-04-27T12:32:45.871Z,4.83
2018-04-27T12:35:13.728Z,4.73
2018-04-27T12:37:41.177Z,3.73
2018-04-27T12:40:08.697Z,3.07
2018-04-27T12:42:36.131Z,6.30
2018-04-27T12:45:03.634Z,4.00
2018-04-27T12:47:31.023Z,6.30
2018-04-27T12:49:58.467Z,2.37
2018-04-27T12:52:26.675Z,7.03
2018-04-27T12:54:54.113Z,8.50
2018-04-27T12:57:21.562Z,11.43
2018-04-27T12:59:49.764Z,2.00
2018-04-27T13:02:17.254Z,7.43
2018-04-27T13:04:44.702Z,4.07
2018-04-27T13:07:12.185Z,9.80
2018-04-27T13:09:39.640Z,3.67
2018-04-27T13:12:07.083Z,6.10
2018-04-27T13:14:34.595Z,3.00
2018-04-27T13:17:02.023Z,5.90
2018-04-27T13:19:29.494Z,4.80
2018-04-27T13:21:57.028Z,5.03
2018-04-27T13:24:24.510Z,3.10
2018-04-27T13:26:51.948Z,3.70
2018-04-27T13:29:19.397Z,4.77
2018-04-27T13:31:47.587Z,6.10
2018-04-27T13:34:15.049Z,3.70
2018-04-27T13:36:42.482Z,6.90
2018-04-27T13:39:10.719Z,3.30
2018-04-27T13:41:38.158Z,4.30
2018-04-27T13:44:05.603Z,4.10
2018-04-27T13:46:33.034Z,3.43
2018-04-27T13:49:01.275Z,5.80
2018-04-27T13:51:28.753Z,3.27
2018-04-27T13:53:56.185Z,3.80
2018-04-27T13:56:23.623Z,4.60
2018-04-27T13:58:51.121Z,5.80
2018-04-27T14:01:18.597Z,4.73
2018-04-27T14:03:46.040Z,4.30
2018-04-27T14:06:13.506Z,5.47
2018-04-27T14:08:41.068Z,2.50
2018-04-27T14:11:08.540Z,3.67
2018-04-27T14:13:35.998Z,9.40
2018-04-27T14:16:03.439Z,2.87
2018-04-27T14:18:30.883Z,2.40
2018-04-27T14:20:58.383Z,4.00
2018-04-27T14:23:25.838Z,3.03
2018-04-27T14:25:53.291Z,4.53
2018-04-27T14:28:20.838Z,5.07
2018-04-27T14:30:48.282Z,7.20
2018-04-27T14:33:15.791Z,2.00
2018-04-27T14:35:43.229Z,4.93
2018-04-27T14:38:10.666Z,2.67
2018-04-27T14:40:38.999Z,5.93
2018-04-27T14:43:06.529Z,5.67
2018-04-27T14:45:34.961Z,3.17
2018-04-27T14:48:02.407Z,5.60
2018-04-27T14:50:29.867Z,3.50
2018-04-27T14:52:57.311Z,4.80
2018-04-27T14:55:24.762Z,3.57
2018-04-27T14:57:52.206Z,2.27
2018-04-27T15:00:19.646Z,3.70
2018-04-27T15:02:47.889Z,2.97
2018-04-27T15:05:15.370Z,5.37
2018-04-27T15:07:42.907Z,6.93
2018-04-27T15:10:10.362Z,4.53
2018-04-27T15:12:37.840Z,5.43
2018-04-27T15:15:05.298Z,3.90
2018-04-27T15:17:32.743Z,3.97
2018-04-27T15:20:00.191Z,5.20
2018-04-27T15:22:27.636Z,4.30
2018-04-27T15:24:55.134Z,3.07
2018-04-27T15:27:22.583Z,4.30
2018-04-27T15:29:50.080Z,4.90
2018-04-27T15:32:17.633Z,8.00
2018-04-27T15:34:45.058Z,3.80
2018-04-27T15:37:12.511Z,5.80
2018-04-27T15:39:39.946Z,4.60
2018-04-27T15:42:08.159Z,8.50
2018-04-27T15:44:35.595Z,6.40
2018-04-27T15:47:03.827Z,4.40
2018-04-27T15:49:31.292Z,3.70
2018-04-27T15:51:58.775Z,4.70
2018-04-27T15:54:26.211Z,5.20
2018-04-27T15:56:53.667Z,5.57
2018-04-27T15:59:21.099Z,3.40
2018-04-27T16:01:48.547Z,5.80
2018-04-27T16:04:15.982Z,5.80
2018-04-27T16:06:43.435Z,5.03
2018-04-27T16:09:11.060Z,5.60
2018-04-27T16:11:39.255Z,3.13
2018-04-27T16:14:06.692Z,7.73
2018-04-27T16:16:34.139Z,3.60
2018-04-27T16:19:02.563Z,5.07
2018-04-27T16:21:30.014Z,4.30
2018-04-27T16:23:58.416Z,3.07
2018-04-27T16:26:28.809Z,3.93
2018-04-27T16:28:56.307Z,2.63
2018-04-27T16:31:23.763Z,5.53
2018-04-27T16:33:51.224Z,3.37
2018-04-27T16:36:18.691Z,2.10
2018-04-27T16:38:46.127Z,2.93
2018-04-27T16:41:13.619Z,5.40
2018-04-27T16:43:41.058Z,3.30
2018-04-27T16:46:08.530Z,3.13
2018-04-27T16:48:35.996Z,4.30
2018-04-27T16:51:03.453Z,2.60
2018-04-27T16:53:30.887Z,9.00
2018-04-27T16:55:58.380Z,4.63
2018-04-27T16:58:25.830Z,4.77
2018-04-27T17:00:53.282Z,4.67
2018-04-27T17:03:20.750Z,4.33
2018-04-27T17:05:48.394Z,3.47
2018-04-27T17:08:15.838Z,2.40
2018-04-27T17:10:43.266Z,3.90
2018-04-27T17:13:10.709Z,2.93
2018-04-27T17:15:38.170Z,2.60
2018-04-27T17:18:05.700Z,5.00
2018-04-27T17:20:33.200Z,3.53
2018-04-27T17:23:00.665Z,3.23
2018-04-27T17:25:28.123Z,2.80
2018-04-27T17:27:55.571Z,4.83
2018-04-27T17:30:23.041Z,4.77
2018-04-27T17:32:50.536Z,2.00
2018-04-27T17:35:18.762Z,3.00
2018-04-27T17:37:46.255Z,5.10
2018-04-27T17:40:13.700Z,6.90
2018-04-27T17:42:41.149Z,3.07
2018-04-27T17:45:08.750Z,4.93
2018-04-27T17:47:36.273Z,4.73
2018-04-27T17:50:03.730Z,2.83
2018-04-27T17:52:31.226Z,2.60
2018-04-27T17:54:59.435Z,7.80
2018-04-27T17:57:27.649Z,6.30
2018-04-27T17:59:55.084Z,4.10
2018-04-27T18:02:23.289Z,2.13
2018-04-27T18:04:50.751Z,6.70
2018-04-27T18:07:18.283Z,5.33
2018-04-27T18:09:46.487Z,4.70
2018-04-27T18:12:13.995Z,3.17
2018-04-27T18:14:41.366Z,3.20
2018-04-27T18:17:08.807Z,7.47
2018-04-27T18:19:36.247Z,5.00
2018-04-27T18:22:03.693Z,4.80
2018-04-27T18:24:31.149Z,14.27
2018-04-27T18:26:58.739Z,8.60
2018-04-27T18:29:26.186Z,4.40
2018-04-27T18:31:54.045Z,5.40
2018-04-27T18:34:21.556Z,3.27
2018-04-27T18:36:49.775Z,8.63
2018-04-27T18:39:17.354Z,5.33
2018-04-27T18:41:44.799Z,3.00
2018-04-27T18:44:12.251Z,5.30
2018-04-27T18:46:40.493Z,7.77
2018-04-27T18:49:08.733Z,5.77
2018-04-27T18:51:36.174Z,3.10
2018-04-27T18:54:04.386Z,5.33
2018-04-27T18:56:33.692Z,5.67
2018-04-27T18:59:01.154Z,5.27
2018-04-27T19:01:28.631Z,3.47
2018-04-27T19:03:56.878Z,7.10
2018-04-27T19:06:24.378Z,4.27
2018-04-27T19:08:51.973Z,5.60
2018-04-27T19:11:19.434Z,4.57
2018-04-27T19:13:47.683Z,7.80
2018-04-27T19:16:15.140Z,5.17
2018-04-27T19:18:42.610Z,8.80
2018-04-27T19:21:10.086Z,8.00
2018-04-27T19:23:38.329Z,5.13
2018-04-27T19:26:06.615Z,6.60
2018-04-27T19:28:34.885Z,4.37
2018-04-27T19:31:02.324Z,4.00
2018-04-27T19:33:30.730Z,2.70
2018-04-27T19:35:58.163Z,9.33
2018-04-27T19:38:25.667Z,4.20
2018-04-27T19:40:53.723Z,6.50
2018-04-27T19:43:21.294Z,6.17
2018-04-27T19:45:49.655Z,6.30
2018-04-27T19:48:18.639Z,4.30
2018-04-27T19:50:46.830Z,6.73
2018-04-27T19:53:14.278Z,3.10
2018-04-27T19:55:42.506Z,4.73
2018-04-27T19:58:09.961Z,8.90
2018-04-27T20:00:38.178Z,4.27
2018-04-27T20:03:06.398Z,5.20
2018-04-27T20:05:43.426Z,7.53
2018-04-27T20:08:10.938Z,4.70
2018-04-27T20:10:40.378Z,6.00
2018-04-27T20:13:17.317Z,4.57
2018-04-27T20:15:46.343Z,5.53
2018-04-27T20:18:29.563Z,5.00
2018-04-27T20:21:04.874Z,8.80
2018-04-27T20:23:34.061Z,4.93
2018-04-27T20:26:05.046Z,4.27
2018-04-27T20:28:32.527Z,5.40
2018-04-27T20:30:59.978Z,3.40
2018-04-27T20:33:27.441Z,6.90
2018-04-27T20:35:55.811Z,2.70
2018-04-27T20:38:26.857Z,3.83
2018-04-27T20:40:54.309Z,7.70
2018-04-27T20:43:24.563Z,10.20
2018-04-27T20:45:52.900Z,6.57
2018-04-27T20:48:30.238Z,3.70
2018-04-27T20:51:00.239Z,5.27
2018-04-27T20:53:30.509Z,4.37
2018-04-27T20:56:03.313Z,9.47
2018-04-27T20:58:30.748Z,4.50
2018-04-27T21:00:58.973Z,4.00
2018-04-27T21:03:26.423Z,6.40
2018-04-27T21:05:53.854Z,4.63
2018-04-27T21:08:21.371Z,10.47
2018-04-27T21:10:48.909Z,7.07
2018-04-27T21:13:16.462Z,6.30
2018-04-27T21:15:43.886Z,5.23
2018-04-27T21:18:17.009Z,7.60
2018-04-27T21:20:44.511Z,6.70
2018-04-27T21:23:11.986Z,6.87
2018-04-27T21:25:40.314Z,6.90
2018-04-27T21:28:14.372Z,5.77
2018-04-27T21:30:49.845Z,5.00
2018-04-27T21:33:18.050Z,5.90
2018-04-27T21:35:49.192Z,6.90
2018-04-27T21:41:37.673Z,6.20
2018-04-27T21:44:20.807Z,6.33
2018-04-27T21:46:52.042Z,4.87
2018-04-27T21:49:19.615Z,7.00
2018-04-27T21:51:53.709Z,7.20
2018-04-27T21:54:21.218Z,4.70
2018-04-27T21:56:59.180Z,5.43
2018-04-27T21:59:38.586Z,6.90
2018-04-27T22:05:13.132Z,4.40
2018-04-27T22:07:48.269Z,6.30
2018-04-27T22:10:15.726Z,5.13
2018-04-27T22:12:44.011Z,9.13
2018-04-27T22:15:11.465Z,4.13
2018-04-27T22:17:39.860Z,5.13
2018-04-27T22:20:07.994Z,10.27
2018-04-27T22:22:35.491Z,4.93
2018-04-27T22:25:18.754Z,6.00
2018-04-27T22:27:47.909Z,7.13
2018-04-27T22:30:22.105Z,5.43
2018-04-27T22:32:49.542Z,14.53
2018-04-27T22:38:31.045Z,4.87
2018-04-27T22:40:58.487Z,7.27
2018-04-27T22:43:26.695Z,12.73
2018-04-27T22:46:06.382Z,6.30
2018-04-27T22:48:37.501Z,4.60
2018-04-27T22:53:59.377Z,4.63
2018-04-27T22:56:33.550Z,5.03
2018-04-27T22:59:01.141Z,4.97
2018-04-27T23:01:28.680Z,5.37
2018-04-27T23:03:56.963Z,5.07
2018-04-27T23:06:24.427Z,7.03
2018-04-27T23:08:51.957Z,9.30
2018-04-27T23:11:30.909Z,8.30
2018-04-27T23:16:57.351Z,7.07
2018-04-27T23:19:37.661Z,7.97
2018-04-27T23:22:22.803Z,8.00
2018-04-27T23:24:51.973Z,6.93
2018-04-27T23:27:19.432Z,11.40
2018-04-27T23:29:46.887Z,8.07
2018-04-27T23:32:15.297Z,4.80
2018-04-27T23:34:42.736Z,7.57
2018-04-27T23:37:10.177Z,7.60
2018-04-27T23:39:37.615Z,6.27
2018-04-27T23:42:05.068Z,11.93
2018-04-27T23:44:33.290Z,7.63
2018-04-27T23:47:00.734Z,10.63
2018-04-27T23:49:28.390Z,5.93
2018-04-27T23:51:55.883Z,6.20
2018-04-27T23:54:23.322Z,7.03
2018-04-27T23:56:50.817Z,12.30
2018-04-27T23:59:27.383Z,4.90
